Time;durP1;ratioP1;P1;durP2;ratioP2;P2;SDS_P1;SDS_P2;PMS_P1;PMS_P2;Temp;Humidity;BMP_temperature;BMP_pressure;BME280_temperature;BME280_humidity;BME280_pressure;Samples;Min_cycle;Max_cycle;Signal;HPM_P1;HPM_P2
2022/01/02 00:01:41;;;;;;;15.18;6.95;;;;;;;14.10;71.48;101761.41;4975145;28;20064;-59
2022/01/02 00:04:06;;;;;;;17.88;6.80;;;;;;;14.12;71.29;101761.44;4978633;28;20153;-59
2022/01/02 00:06:34;;;;;;;12.93;6.35;;;;;;;14.10;71.54;101743.03;4980061;28;20413;-59
2022/01/02 00:09:06;;;;;;;15.77;6.70;;;;;;;14.05;71.89;101736.88;4977654;28;20050;-59
2022/01/02 00:11:32;;;;;;;14.10;6.30;;;;;;;13.98;72.41;101723.66;4987179;28;20392;-60
2022/01/02 00:14:07;;;;;;;14.80;6.53;;;;;;;14.07;72.10;101724.66;4980898;28;20042;-58
2022/01/02 00:16:36;;;;;;;15.45;6.45;;;;;;;14.05;72.44;101735.97;4975745;28;20046;-59
2022/01/02 00:19:07;;;;;;;15.45;6.50;;;;;;;13.98;72.55;101736.75;4979815;28;20054;-60
2022/01/02 00:21:34;;;;;;;15.73;6.68;;;;;;;14.02;72.53;101739.47;4976314;28;20571;-59
2022/01/02 00:24:05;;;;;;;17.50;6.70;;;;;;;14.04;72.82;101737.72;4978864;28;20068;-59
2022/01/02 00:26:51;;;;;;;13.20;6.18;;;;;;;14.07;72.45;101747.38;4980996;28;20461;-61
2022/01/02 00:29:17;;;;;;;13.93;6.05;;;;;;;13.90;73.32;101746.28;4981857;28;20034;-58
2022/01/02 00:31:42;;;;;;;13.02;6.13;;;;;;;14.03;72.67;101743.81;4974840;28;20246;-59
2022/01/02 00:34:09;;;;;;;14.57;6.13;;;;;;;14.11;72.64;101738.69;4984498;28;20046;-60
2022/01/02 00:36:35;;;;;;;12.23;6.20;;;;;;;14.04;72.63;101724.63;4994826;28;20556;-59
2022/01/02 00:39:02;;;;;;;15.50;6.28;;;;;;;14.13;72.62;101705.50;4981402;28;20034;-60
2022/01/02 00:41:37;;;;;;;14.35;6.28;;;;;;;14.16;72.52;101702.91;4973622;28;20052;-60
2022/01/02 00:44:07;;;;;;;11.88;5.80;;;;;;;14.15;72.59;101709.00;4979347;28;20477;-60
2022/01/02 00:46:34;;;;;;;13.88;5.80;;;;;;;14.13;73.17;101708.13;4977630;28;20491;-58
2022/01/02 00:49:03;;;;;;;18.45;5.95;;;;;;;14.16;73.07;101711.66;4975881;28;20038;-59
2022/01/02 00:51:53;;;;;;;16.15;6.18;;;;;;;14.01;73.67;101692.25;4982314;28;20596;-59
2022/01/02 00:54:22;;;;;;;13.10;5.63;;;;;;;14.05;73.92;101686.16;4979631;28;20291;-60
2022/01/02 00:56:50;;;;;;;13.88;5.60;;;;;;;14.15;73.69;101682.78;4973138;28;20080;-58
2022/01/02 00:59:30;;;;;;;11.38;5.85;;;;;;;14.15;73.66;101686.28;4969508;28;20159;-59
2022/01/02 01:02:02;;;;;;;14.00;5.60;;;;;;;14.19;73.62;101687.22;4979954;28;20058;-59
2022/01/02 01:04:30;;;;;;;15.35;5.30;;;;;;;14.23;73.45;101687.25;4978469;28;20108;-59
2022/01/02 01:06:58;;;;;;;14.25;5.38;;;;;;;14.26;73.29;101675.06;4976125;28;20297;-60
2022/01/02 01:09:26;;;;;;;14.52;5.53;;;;;;;14.28;73.17;101673.31;4974184;28;20044;-60
2022/01/02 01:11:51;;;;;;;17.88;6.20;;;;;;;14.34;73.04;101673.38;4980863;28;20050;-59
2022/01/02 01:14:17;;;;;;;13.30;5.70;;;;;;;14.32;72.68;101662.88;4975756;28;20465;-60
2022/01/02 01:16:42;;;;;;;16.95;5.38;;;;;;;14.32;73.00;101641.03;4976801;28;20050;-59
2022/01/02 01:19:08;;;;;;;16.92;5.75;;;;;;;14.30;72.86;101627.88;4979077;28;20448;-59
2022/01/02 01:21:33;;;;;;;13.10;5.55;;;;;;;14.34;72.92;101620.91;4971132;28;20075;-59
2022/01/02 01:23:59;;;;;;;13.50;5.30;;;;;;;14.37;72.81;101621.88;4975864;28;20058;-59
2022/01/02 01:26:24;;;;;;;14.20;5.80;;;;;;;14.27;73.04;101617.38;4980008;28;20045;-59
2022/01/02 01:28:49;;;;;;;18.38;6.53;;;;;;;14.40;72.32;101619.25;4974403;28;20606;-59
2022/01/02 01:31:15;;;;;;;15.65;6.70;;;;;;;14.38;72.18;101630.63;4982235;28;20033;-59
2022/01/02 01:33:40;;;;;;;16.25;6.18;;;;;;;14.32;72.29;101623.53;4972733;28;20497;-59
2022/01/02 01:36:06;;;;;;;19.10;6.70;;;;;;;14.33;72.05;101630.56;4977535;28;20052;-59
2022/01/02 01:38:31;;;;;;;14.52;5.55;;;;;;;14.37;72.27;101618.34;4982885;28;20054;-60
2022/01/02 01:41:29;;;;;;;18.30;5.07;;;;;;;14.35;72.68;101612.19;4986715;28;20104;-59
2022/01/02 01:44:21;;;;;;;11.23;4.57;;;;;;;14.38;72.41;101607.91;4983073;28;20579;-61
2022/01/02 01:46:48;;;;;;;13.77;4.47;;;;;;;14.60;71.66;101604.59;4979340;28;20088;-60
2022/01/02 01:49:19;;;;;;;16.27;4.55;;;;;;;14.70;70.91;101596.81;4980362;28;20463;-61
2022/01/02 01:51:45;;;;;;;13.60;4.88;;;;;;;14.79;70.56;101603.00;4973912;28;20492;-59
2022/01/02 01:54:15;;;;;;;13.15;4.50;;;;;;;14.79;70.09;101589.88;4995814;28;20056;-59
2022/01/02 01:56:40;;;;;;;18.58;4.55;;;;;;;14.79;70.24;101594.25;4974582;28;20814;-59
2022/01/02 01:59:06;;;;;;;15.57;5.03;;;;;;;14.87;70.04;101609.19;4980184;28;20255;-59
2022/01/02 02:01:32;;;;;;;14.13;4.70;;;;;;;14.87;69.87;101592.56;4972609;28;20046;-59
2022/01/02 02:03:58;;;;;;;14.68;4.60;;;;;;;14.86;69.55;101593.44;4978805;28;20050;-59
2022/01/02 02:06:23;;;;;;;13.85;4.53;;;;;;;14.81;70.24;101579.41;4981788;28;20056;-58
2022/01/02 02:08:52;;;;;;;13.57;4.60;;;;;;;14.92;69.42;101580.34;4984605;28;20043;-59
2022/01/02 02:11:18;;;;;;;15.60;4.55;;;;;;;14.95;69.41;101582.97;4985899;28;20042;-60
2022/01/02 02:13:44;;;;;;;17.45;4.80;;;;;;;14.89;69.53;101569.81;4974299;28;20413;-60
2022/01/02 02:16:10;;;;;;;15.45;4.30;;;;;;;14.95;69.26;101552.34;4983667;28;20156;-59
2022/01/02 02:18:35;;;;;;;10.63;4.18;;;;;;;14.94;69.35;101570.75;4985339;28;20077;-59
2022/01/02 02:21:01;;;;;;;19.98;4.05;;;;;;;14.96;69.32;101568.97;4980623;28;20049;-59
2022/01/02 02:23:26;;;;;;;13.60;4.03;;;;;;;15.01;69.41;101575.13;4979931;28;20049;-61
2022/01/02 02:25:51;;;;;;;12.43;4.20;;;;;;;15.06;69.43;101575.19;4981410;28;20523;-59
2022/01/02 02:28:17;;;;;;;14.20;4.55;;;;;;;15.05;69.46;101565.53;4981960;28;20424;-59
2022/01/02 02:30:46;;;;;;;14.02;4.32;;;;;;;15.10;69.26;101563.81;4981137;28;20041;-60
2022/01/02 02:33:18;;;;;;;12.27;4.30;;;;;;;15.10;69.12;101548.94;4982963;28;20042;-61
2022/01/02 02:35:46;;;;;;;12.90;4.10;;;;;;;15.13;69.15;101537.56;4977689;28;20046;-60
2022/01/02 02:38:13;;;;;;;14.25;4.00;;;;;;;15.05;69.37;101539.28;4982571;28;20041;-60
2022/01/02 02:40:39;;;;;;;14.57;4.10;;;;;;;15.00;69.34;101542.75;4983384;28;20468;-61
2022/01/02 02:51:06;;;;;;;12.27;3.78;;;;;;;15.28;68.00;101517.50;4977077;28;20064;-60
2022/01/02 02:53:34;;;;;;;10.93;3.97;;;;;;;15.24;68.35;101520.13;4972368;28;21188;-60
2022/01/02 02:56:00;;;;;;;11.40;3.45;;;;;;;15.30;67.81;101521.03;4982998;28;20413;-59
2022/01/02 03:01:00;;;;;;;15.38;3.60;;;;;;;15.35;67.66;101537.69;4982256;28;20045;-59
2022/01/02 03:03:26;;;;;;;16.75;4.28;;;;;;;15.34;67.73;101535.94;4979964;28;20049;-60
2022/01/02 03:05:52;;;;;;;14.98;3.67;;;;;;;15.37;67.49;101538.56;4977451;28;20046;-59
2022/01/02 03:08:18;;;;;;;15.63;3.80;;;;;;;15.31;67.39;101520.13;4982498;28;20594;-59
2022/01/02 03:10:43;;;;;;;14.13;3.67;;;;;;;15.46;67.00;101534.22;4980082;28;20049;-60
2022/01/02 03:13:09;;;;;;;15.00;3.83;;;;;;;15.40;67.38;101517.56;4982477;28;20409;-60
2022/01/02 03:15:34;;;;;;;11.88;3.35;;;;;;;15.42;67.59;101507.06;4975616;28;20128;-60
2022/01/02 03:17:59;;;;;;;18.65;3.80;;;;;;;15.34;68.77;101487.75;4982722;28;20128;-60
2022/01/02 03:20:25;;;;;;;11.00;3.70;;;;;;;15.27;69.12;101497.38;4983511;28;20651;-60
2022/01/02 03:22:50;;;;;;;12.32;3.72;;;;;;;15.25;69.18;101492.97;4980823;28;20050;-58
2022/01/02 03:25:17;;;;;;;12.30;3.97;;;;;;;15.22;69.08;101493.84;4981692;28;20057;-60
2022/01/02 03:27:43;;;;;;;19.92;3.83;;;;;;;15.25;68.90;101498.22;4968731;28;20069;-60
2022/01/02 03:30:09;;;;;;;14.05;3.67;;;;;;;15.14;69.12;101487.69;4982270;28;20548;-60
2022/01/02 03:32:35;;;;;;;13.40;3.70;;;;;;;15.22;68.65;101477.22;4974947;28;20112;-59
2022/01/02 03:35:01;;;;;;;10.63;3.80;;;;;;;15.21;68.33;101459.69;4974557;28;20545;-60
2022/01/02 03:37:28;;;;;;;10.95;3.78;;;;;;;15.18;68.12;101463.19;4971939;28;20252;-62
2022/01/02 03:39:55;;;;;;;13.10;3.90;;;;;;;15.24;68.12;101459.72;4980356;28;20037;-59
2022/01/02 03:42:20;;;;;;;11.50;3.72;;;;;;;15.22;67.95;101464.06;4980661;28;20052;-60
2022/01/02 03:44:45;;;;;;;10.20;3.65;;;;;;;15.31;67.33;101464.09;4981131;28;20041;-60
2022/01/02 03:47:11;;;;;;;11.65;3.53;;;;;;;15.30;67.17;101458.00;4983582;28;20049;-60
2022/01/02 03:49:36;;;;;;;11.55;3.88;;;;;;;15.36;66.91;101457.13;4975841;28;20033;-60
2022/01/02 03:52:02;;;;;;;11.18;3.63;;;;;;;15.33;66.89;101468.50;4981408;28;20511;-60
2022/01/02 03:54:27;;;;;;;12.15;3.67;;;;;;;15.28;67.42;101453.59;4977411;28;20133;-59
2022/01/02 03:56:54;;;;;;;15.30;3.22;;;;;;;15.37;66.97;101440.47;4985083;28;20549;-60
2022/01/02 03:59:19;;;;;;;12.82;3.70;;;;;;;15.44;66.63;101442.25;4970049;28;20108;-59
2022/01/02 04:01:45;;;;;;;12.15;3.22;;;;;;;15.34;67.50;101438.72;4977297;28;21369;-61
2022/01/02 04:04:10;;;;;;;13.77;3.67;;;;;;;15.37;67.02;101443.97;4976433;28;20053;-61
2022/01/02 04:06:35;;;;;;;12.63;3.67;;;;;;;15.42;66.62;101444.88;4984381;28;20076;-59
2022/01/02 04:09:01;;;;;;;13.50;3.47;;;;;;;15.46;66.61;101434.38;4981588;28;20421;-59
2022/01/02 04:11:26;;;;;;;13.55;3.55;;;;;;;15.37;66.37;101429.97;4978941;28;20136;-61
2022/01/02 04:13:51;;;;;;;11.27;3.40;;;;;;;15.41;66.29;101430.00;4996548;28;20046;-59
2022/01/02 04:16:17;;;;;;;13.77;3.40;;;;;;;15.37;66.57;101430.84;4984873;28;20140;-59
2022/01/02 04:18:42;;;;;;;12.80;3.45;;;;;;;15.32;66.77;101421.19;4984273;28;20118;-59
2022/01/02 04:21:07;;;;;;;12.90;3.70;;;;;;;15.30;67.00;101423.84;4977603;28;20125;-61
2022/01/02 04:23:33;;;;;;;10.80;3.50;;;;;;;15.18;67.69;101420.28;4974392;28;20499;-59
2022/01/02 04:25:58;;;;;;;14.65;3.90;;;;;;;15.13;67.74;101419.38;4979210;28;20491;-59
2022/01/02 04:28:23;;;;;;;11.57;3.80;;;;;;;15.18;67.58;101412.41;4985021;28;20041;-60
2022/01/02 04:30:49;;;;;;;14.80;4.00;;;;;;;15.07;67.49;101408.84;4979679;28;20145;-59
2022/01/02 04:33:14;;;;;;;12.23;3.92;;;;;;;15.21;67.14;101401.91;4976529;28;20048;-60
2022/01/02 04:35:42;;;;;;;13.20;3.95;;;;;;;15.18;67.08;101396.66;4976093;28;20348;-58
2022/01/02 04:38:07;;;;;;;10.13;3.75;;;;;;;15.12;67.68;101387.00;4981240;28;20050;-59
2022/01/02 04:40:32;;;;;;;15.80;4.63;;;;;;;15.17;67.46;101387.91;4980204;28;20174;-59
2022/01/02 04:42:57;;;;;;;14.32;4.32;;;;;;;15.10;67.50;101383.50;4983054;28;20096;-59
2022/01/02 04:45:23;;;;;;;12.45;4.00;;;;;;;14.91;68.24;101368.53;4969662;28;20132;-59
2022/01/02 04:47:48;;;;;;;13.98;4.20;;;;;;;14.98;68.09;101365.97;4975193;28;20050;-60
2022/01/02 04:50:13;;;;;;;11.75;3.92;;;;;;;14.93;68.22;101374.69;4976778;28;20401;-59
2022/01/02 04:52:39;;;;;;;12.30;4.05;;;;;;;14.97;68.07;101353.69;4982274;28;20048;-61
2022/01/02 04:55:05;;;;;;;10.18;3.70;;;;;;;15.06;68.19;101363.38;4981434;28;20111;-60
2022/01/02 04:57:31;;;;;;;13.45;3.83;;;;;;;15.03;68.13;101348.47;4972829;28;20441;-60
2022/01/02 04:59:56;;;;;;;9.35;3.70;;;;;;;14.97;68.61;101350.19;4978646;28;20057;-60
2022/01/02 05:02:21;;;;;;;9.90;3.70;;;;;;;14.91;69.00;101337.03;4978756;28;20137;-59
2022/01/02 05:04:47;;;;;;;14.95;3.88;;;;;;;14.98;69.11;101339.69;4982183;28;20120;-59
2022/01/02 05:07:13;;;;;;;14.50;3.95;;;;;;;14.88;69.40;101337.91;4987580;28;20397;-60
2022/01/02 05:09:39;;;;;;;11.57;3.65;;;;;;;14.86;69.49;101325.66;4972707;28;20187;-60
2022/01/02 05:12:04;;;;;;;12.23;4.10;;;;;;;14.89;69.47;101323.91;4986663;28;20053;-60
2022/01/02 05:14:29;;;;;;;8.55;3.95;;;;;;;14.92;69.29;101321.31;4977846;28;20513;-59
2022/01/02 05:16:55;;;;;;;8.95;3.88;;;;;;;14.91;69.15;101318.66;4972147;28;20187;-60
2022/01/02 05:19:23;;;;;;;10.60;3.83;;;;;;;14.92;69.15;101312.56;4977072;28;20044;-59
2022/01/02 05:21:49;;;;;;;9.43;3.92;;;;;;;14.92;69.13;101295.06;4975044;28;20046;-59
2022/01/02 05:24:14;;;;;;;13.80;4.05;;;;;;;14.85;69.95;101298.53;4977009;28;20054;-60
2022/01/02 05:26:39;;;;;;;10.75;3.80;;;;;;;14.73;70.65;101281.88;4979919;28;20528;-60
2022/01/02 05:29:05;;;;;;;11.35;3.72;;;;;;;14.67;71.02;101280.09;4995916;28;20046;-58
2022/01/02 05:31:30;;;;;;;8.57;3.28;;;;;;;14.80;70.67;101262.66;4973444;28;20152;-58
2022/01/02 05:33:58;;;;;;;8.57;3.25;;;;;;;14.82;70.04;101261.75;4976501;28;20128;-58
2022/01/02 05:36:24;;;;;;;13.05;3.55;;;;;;;14.90;70.05;101260.03;4979844;28;20053;-59
2022/01/02 05:38:50;;;;;;;8.63;3.58;;;;;;;14.85;70.19;101255.66;4981419;28;20045;-59
2022/01/02 05:41:16;;;;;;;8.23;3.67;;;;;;;14.85;69.91;101248.66;4974293;28;20053;-60
2022/01/02 05:43:41;;;;;;;15.30;3.83;;;;;;;14.72;70.30;101254.75;4965889;28;20441;-59
2022/01/02 05:46:06;;;;;;;7.78;3.65;;;;;;;14.78;69.91;101246.88;4980826;28;20050;-60
2022/01/02 05:48:33;;;;;;;13.65;4.28;;;;;;;14.75;69.78;101243.41;4977607;28;20054;-60
2022/01/02 05:51:01;;;;;;;13.80;3.67;;;;;;;14.77;69.84;101244.25;4974819;28;20548;-59
2022/01/02 05:53:28;;;;;;;11.95;3.58;;;;;;;14.70;69.70;101235.47;4974687;28;20460;-60
2022/01/02 05:55:53;;;;;;;14.00;4.30;;;;;;;14.69;69.25;101223.25;4981106;28;20053;-59
2022/01/02 05:58:19;;;;;;;13.60;4.40;;;;;;;14.65;68.97;101231.09;4971432;28;20540;-59
2022/01/02 06:00:44;;;;;;;10.88;4.38;;;;;;;14.69;68.57;101225.00;4981438;28;20046;-60
2022/01/02 06:03:09;;;;;;;10.50;4.43;;;;;;;14.65;68.73;101225.84;4976695;28;20022;-60
2022/01/02 06:05:35;;;;;;;10.93;4.53;;;;;;;14.59;68.96;101210.97;4969485;28;20808;-59
2022/01/02 06:08:02;;;;;;;11.18;4.70;;;;;;;14.56;69.38;101209.25;4978963;28;20141;-60
2022/01/02 06:10:27;;;;;;;9.65;4.63;;;;;;;14.57;69.14;101203.13;4974765;28;20509;-60
2022/01/02 06:12:53;;;;;;;14.15;4.70;;;;;;;14.51;69.13;101192.63;4980014;28;20042;-60
2022/01/02 06:15:18;;;;;;;11.10;4.68;;;;;;;14.60;69.16;101197.88;4981208;28;20085;-59
2022/01/02 06:17:43;;;;;;;11.48;5.07;;;;;;;14.52;69.53;101178.59;4969025;28;20129;-60
2022/01/02 06:20:09;;;;;;;11.88;4.50;;;;;;;14.47;69.57;101179.47;4979971;28;21356;-59
2022/01/02 06:22:34;;;;;;;13.50;4.38;;;;;;;14.49;69.03;101175.97;4974335;28;20772;-60
2022/01/02 06:24:59;;;;;;;10.65;5.00;;;;;;;14.55;68.89;101175.13;4981052;28;20038;-61
2022/01/02 06:27:25;;;;;;;10.63;4.45;;;;;;;14.58;68.66;101165.50;4993198;28;20577;-58
2022/01/02 06:29:50;;;;;;;11.43;4.60;;;;;;;14.51;68.67;101149.75;4976736;28;20497;-59
2022/01/02 06:32:15;;;;;;;12.18;4.75;;;;;;;14.57;68.48;101144.53;4976655;28;20042;-58
2022/01/02 06:34:41;;;;;;;11.75;4.70;;;;;;;14.60;67.97;101144.50;4977753;28;20049;-60
2022/01/02 06:37:06;;;;;;;10.65;4.45;;;;;;;14.63;68.04;101131.41;4976252;28;20490;-61
2022/01/02 06:39:31;;;;;;;8.68;4.80;;;;;;;14.60;67.81;101142.75;4969314;28;20145;-60
2022/01/02 06:41:57;;;;;;;10.48;4.40;;;;;;;14.58;68.25;101141.00;4981003;28;20125;-60
2022/01/02 06:44:22;;;;;;;9.57;4.50;;;;;;;14.56;67.87;101148.00;4978626;28;20553;-59
2022/01/02 06:46:47;;;;;;;11.70;4.72;;;;;;;14.60;67.85;101145.38;4980905;28;20054;-60
2022/01/02 06:49:13;;;;;;;11.32;4.82;;;;;;;14.50;68.24;101143.63;4978972;28;20380;-60
2022/01/02 06:51:38;;;;;;;11.63;5.18;;;;;;;14.53;68.32;101141.00;4973793;28;20147;-60
2022/01/02 06:54:04;;;;;;;11.45;4.60;;;;;;;14.48;68.71;101123.50;4984593;28;20053;-60
2022/01/02 06:56:29;;;;;;;10.25;4.50;;;;;;;14.48;68.31;101124.38;4976794;28;20116;-60
2022/01/02 06:58:54;;;;;;;11.07;4.63;;;;;;;14.47;68.43;101122.63;4982531;28;20570;-59
2022/01/02 07:01:20;;;;;;;9.50;4.25;;;;;;;14.55;67.91;101131.38;4982557;28;20064;-59
2022/01/02 07:03:45;;;;;;;12.00;4.50;;;;;;;14.53;67.54;101125.25;4972280;28;20369;-59
2022/01/02 07:06:11;;;;;;;12.18;4.50;;;;;;;14.45;67.45;101120.88;4982700;28;20048;-59
2022/01/02 07:08:36;;;;;;;9.82;4.05;;;;;;;14.60;66.75;101121.78;4979531;28;20050;-60
2022/01/02 07:11:02;;;;;;;12.65;4.45;;;;;;;14.59;67.07;101121.75;4981453;28;20157;-60
2022/01/02 07:13:28;;;;;;;7.95;3.80;;;;;;;14.58;67.30;101138.38;4977781;28;20049;-59
2022/01/02 07:15:53;;;;;;;9.48;4.15;;;;;;;14.62;66.95;101140.16;4980351;28;20112;-59
2022/01/02 07:18:19;;;;;;;11.40;4.18;;;;;;;14.61;66.87;101141.91;4980439;28;20579;-59
2022/01/02 07:20:44;;;;;;;9.07;3.92;;;;;;;14.59;66.67;101138.38;4981751;28;20124;-59
2022/01/02 07:23:09;;;;;;;10.05;4.10;;;;;;;14.71;66.30;101136.63;4984170;28;20516;-60
2022/01/02 07:25:35;;;;;;;9.88;4.07;;;;;;;14.75;66.34;101125.28;4973269;28;20536;-59
2022/01/02 07:28:00;;;;;;;13.45;4.57;;;;;;;14.80;65.92;101131.41;4975360;28;20588;-60
2022/01/02 07:30:26;;;;;;;12.15;4.15;;;;;;;14.76;66.03;101148.88;4986137;28;20434;-60
2022/01/02 07:32:51;;;;;;;9.23;4.10;;;;;;;14.75;66.42;101136.66;4981818;28;21077;-59
2022/01/02 07:35:17;;;;;;;9.07;4.50;;;;;;;14.80;66.60;101141.91;4976335;28;20058;-59
2022/01/02 07:37:42;;;;;;;21.65;4.80;;;;;;;14.93;65.87;101128.78;4973758;28;20543;-59
2022/01/02 07:40:08;;;;;;;12.48;4.60;;;;;;;14.91;66.17;101138.41;4994655;28;20405;-60
2022/01/02 07:42:33;;;;;;;14.95;4.95;;;;;;;14.77;66.55;101139.25;4981527;28;20045;-61
2022/01/02 07:44:59;;;;;;;10.07;5.10;;;;;;;14.65;67.16;101113.88;4976269;28;20547;-59
2022/01/02 07:47:25;;;;;;;11.52;5.22;;;;;;;14.61;67.08;101110.41;4980542;28;20107;-59
2022/01/02 07:49:50;;;;;;;8.38;4.90;;;;;;;14.55;67.78;101126.16;4980667;28;20045;-59
2022/01/02 07:52:16;;;;;;;13.30;5.00;;;;;;;14.45;68.20;101113.03;4984138;28;20204;-59
2022/01/02 07:54:41;;;;;;;11.05;5.00;;;;;;;14.68;67.59;101124.41;4975908;28;20049;-59
2022/01/02 07:57:06;;;;;;;9.35;4.88;;;;;;;14.73;67.83;101119.16;4984683;28;20084;-59
2022/01/02 07:59:32;;;;;;;12.93;4.97;;;;;;;14.75;67.73;101115.66;4968491;28;20482;-59
2022/01/02 08:01:57;;;;;;;13.85;5.00;;;;;;;14.70;67.90;101124.41;4982611;28;20057;-59
2022/01/02 08:04:23;;;;;;;12.93;4.72;;;;;;;14.58;68.52;101118.25;4977224;28;20512;-59
2022/01/02 08:06:48;;;;;;;9.75;4.60;;;;;;;14.60;68.33;101116.53;4983156;28;20128;-59
2022/01/02 08:09:13;;;;;;;11.68;4.72;;;;;;;14.55;68.95;101106.91;4982452;28;20045;-60
2022/01/02 08:11:39;;;;;;;12.05;5.00;;;;;;;14.53;69.22;101116.50;4974408;28;20050;-59
2022/01/02 08:14:04;;;;;;;13.27;4.80;;;;;;;14.61;68.68;101112.16;4980222;28;20037;-59
2022/01/02 08:16:30;;;;;;;11.25;5.40;;;;;;;14.49;69.43;101109.53;4984316;28;20045;-58
2022/01/02 08:18:55;;;;;;;12.80;5.05;;;;;;;14.48;69.54;101106.00;4983367;28;20037;-59
2022/01/02 08:21:21;;;;;;;12.90;5.57;;;;;;;14.48;69.37;101105.13;4975385;28;20046;-60
2022/01/02 08:23:46;;;;;;;12.65;5.40;;;;;;;14.58;69.11;101105.13;4990228;28;20179;-59
2022/01/02 08:26:12;;;;;;;9.27;5.22;;;;;;;14.51;69.37;101102.53;4981460;28;20212;-59
2022/01/02 08:28:37;;;;;;;13.90;5.68;;;;;;;14.52;69.29;101107.75;4982699;28;20038;-61
2022/01/02 08:31:03;;;;;;;12.95;5.40;;;;;;;14.61;68.85;101106.91;4981015;28;20128;-60
2022/01/02 08:33:29;;;;;;;14.40;5.82;;;;;;;14.52;68.85;101102.50;4974714;28;20065;-62
2022/01/02 08:35:54;;;;;;;11.23;6.00;;;;;;;14.54;68.48;101113.00;4978146;28;20046;-59
2022/01/02 08:38:20;;;;;;;11.32;6.13;;;;;;;14.54;67.97;101106.03;4976604;28;20603;-59
2022/01/02 08:40:45;;;;;;;12.63;6.07;;;;;;;14.49;68.05;101109.53;4982241;28;20042;-59
2022/01/02 08:43:11;;;;;;;12.98;6.30;;;;;;;14.40;67.99;101115.63;4982618;28;20128;-60
2022/01/02 08:45:37;;;;;;;11.77;6.40;;;;;;;14.40;67.84;101110.38;4966419;28;20046;-59
2022/01/02 08:48:03;;;;;;;13.23;6.45;;;;;;;14.39;67.31;101110.38;4995613;28;20489;-60
2022/01/02 08:50:28;;;;;;;15.00;6.82;;;;;;;14.41;67.32;101101.63;4984582;28;20484;-60
2022/01/02 08:52:54;;;;;;;14.38;6.68;;;;;;;14.36;67.13;101105.09;4979213;28;20598;-63
2022/01/02 08:55:19;;;;;;;12.90;6.68;;;;;;;14.47;66.77;101106.00;4980463;28;20049;-60
2022/01/02 08:57:45;;;;;;;16.52;6.35;;;;;;;14.34;67.08;101104.19;4976889;28;20388;-59
2022/01/02 09:00:11;;;;;;;15.00;6.07;;;;;;;14.40;66.59;101102.50;4979680;28;20045;-60
2022/01/02 09:02:36;;;;;;;14.95;6.25;;;;;;;14.33;66.76;101102.47;4981645;28;20195;-59
2022/01/02 09:05:02;;;;;;;11.65;6.18;;;;;;;14.46;66.32;101109.50;4976001;28;20045;-60
2022/01/02 09:07:28;;;;;;;13.63;6.30;;;;;;;14.70;65.83;101121.78;4972759;28;20064;-60
2022/01/02 09:09:53;;;;;;;13.32;6.20;;;;;;;14.66;65.54;101115.66;4972211;28;20050;-59
2022/01/02 09:12:19;;;;;;;12.85;6.75;;;;;;;14.61;66.24;101120.91;4979292;28;20088;-59
2022/01/02 09:14:44;;;;;;;16.75;6.70;;;;;;;14.59;65.70;101111.25;4979768;28;20029;-61
2022/01/02 09:17:10;;;;;;;17.15;6.65;;;;;;;14.66;65.74;101112.16;4980307;28;20824;-60
2022/01/02 09:19:36;;;;;;;18.50;6.60;;;;;;;14.65;65.46;101110.41;4975655;28;20616;-59
2022/01/02 09:22:02;;;;;;;13.75;6.60;;;;;;;14.60;65.60;101116.53;4993008;28;20061;-60
2022/01/02 09:24:28;;;;;;;12.63;6.70;;;;;;;14.65;65.36;101123.50;4990982;28;20129;-61
2022/01/02 09:26:54;;;;;;;13.68;6.60;;;;;;;14.59;65.29;101114.75;4978732;28;20304;-60
2022/01/02 09:29:19;;;;;;;12.27;6.68;;;;;;;14.52;65.71;101117.38;4970293;28;20050;-59
2022/01/02 09:31:45;;;;;;;13.25;6.32;;;;;;;14.65;65.36;101113.00;4964489;28;20120;-59
2022/01/02 09:34:11;;;;;;;12.75;6.55;;;;;;;14.43;66.00;101115.63;4981522;28;20061;-60
2022/01/02 09:36:37;;;;;;;17.25;6.38;;;;;;;14.56;65.74;101127.03;4982481;28;20540;-60
2022/01/02 09:39:03;;;;;;;14.85;6.22;;;;;;;14.55;65.98;101130.50;4978512;28;20070;-59
2022/01/02 09:41:29;;;;;;;14.55;6.30;;;;;;;14.60;66.08;101119.16;4971643;28;20468;-62
2022/01/02 09:43:54;;;;;;;16.48;6.07;;;;;;;14.83;65.54;101126.16;4978248;28;20077;-60
2022/01/02 09:46:22;;;;;;;13.98;6.07;;;;;;;14.91;65.23;101124.41;4978758;28;20038;-59
2022/01/02 09:48:48;;;;;;;12.75;5.63;;;;;;;15.20;64.61;101119.13;4986080;28;20081;-60
2022/01/02 09:51:16;;;;;;;11.82;5.50;;;;;;;15.19;64.30;101120.88;4978994;28;20037;-60
2022/01/02 09:53:43;;;;;;;12.15;5.85;;;;;;;15.19;64.50;101133.13;4973271;28;21162;-59
2022/01/02 09:56:09;;;;;;;13.23;5.70;;;;;;;15.31;64.05;101130.47;4979725;28;20522;-59
2022/01/02 09:58:36;;;;;;;12.23;5.38;;;;;;;15.20;64.38;101130.50;4973626;28;20046;-59
2022/01/02 10:01:02;;;;;;;12.70;5.65;;;;;;;15.04;64.88;101123.53;4980102;28;20123;-60
2022/01/02 10:03:40;;;;;;;13.18;5.15;;;;;;;15.09;64.99;101134.91;4972935;28;20050;-61
2022/01/02 10:06:06;;;;;;;16.50;5.60;;;;;;;15.05;65.49;101127.91;4975651;28;20506;-59
2022/01/02 10:08:36;;;;;;;14.48;5.63;;;;;;;15.03;65.40;101142.78;4975884;28;20117;-59
2022/01/02 10:11:09;;;;;;;16.98;5.30;;;;;;;15.11;65.29;101127.03;4982752;28;20048;-59
2022/01/02 10:13:49;;;;;;;15.07;5.18;;;;;;;15.05;65.82;101124.41;4964666;28;20279;-60
2022/01/02 10:16:43;;;;;;;15.13;5.03;;;;;;;15.00;66.11;101138.38;4979957;28;20053;-60
2022/01/02 10:19:29;;;;;;;15.60;4.82;;;;;;;15.13;65.89;101123.50;4983333;28;20037;-60
2022/01/02 10:21:59;;;;;;;14.20;4.45;;;;;;;15.15;66.08;101129.63;4977600;28;20082;-60
2022/01/02 10:24:30;;;;;;;13.85;4.50;;;;;;;15.17;65.93;101129.63;4976210;28;20122;-60
2022/01/02 10:27:06;;;;;;;18.35;4.70;;;;;;;15.11;66.48;101134.91;4978588;28;20122;-59
2022/01/02 10:29:44;;;;;;;14.55;4.68;;;;;;;15.21;66.30;101126.13;4978360;28;20560;-61
2022/01/02 10:32:23;;;;;;;18.17;5.45;;;;;;;15.20;66.47;101142.75;4975880;28;20037;-60
2022/01/02 10:34:50;;;;;;;20.17;5.13;;;;;;;15.33;65.97;101134.84;4984048;28;20037;-60
2022/01/02 10:37:25;;;;;;;16.10;5.20;;;;;;;15.19;66.30;101126.13;4978932;28;20168;-59
2022/01/02 10:39:51;;;;;;;16.27;4.82;;;;;;;15.13;66.40;101148.88;4981568;28;20081;-61
2022/01/02 10:42:17;;;;;;;23.05;5.28;;;;;;;15.26;66.35;101137.50;4979179;28;20038;-59
2022/01/02 10:44:43;;;;;;;24.02;5.20;;;;;;;15.18;66.77;101149.78;4981348;28;20531;-60
2022/01/02 10:47:20;;;;;;;19.15;4.75;;;;;;;15.29;66.06;101142.75;4980959;28;20058;-60
2022/01/02 10:50:03;;;;;;;19.80;5.53;;;;;;;15.43;65.77;101144.47;4974606;28;21294;-59
2022/01/02 10:52:31;;;;;;;19.75;5.20;;;;;;;15.64;64.99;101143.56;4982343;28;20077;-59
2022/01/02 10:54:59;;;;;;;18.50;5.30;;;;;;;15.56;64.96;101147.09;4979780;28;20046;-60
2022/01/02 10:57:25;;;;;;;17.27;4.90;;;;;;;15.63;64.65;101152.34;4973779;28;20595;-59
2022/01/02 10:59:57;;;;;;;20.95;5.20;;;;;;;15.63;64.78;101152.34;4971820;28;20054;-61
2022/01/02 11:02:24;;;;;;;25.30;5.35;;;;;;;15.33;65.98;101149.75;4980768;28;20044;-60
2022/01/02 11:04:56;;;;;;;27.67;5.40;;;;;;;15.45;65.68;101152.34;4975314;28;20108;-60
2022/01/02 11:07:23;;;;;;;23.38;5.82;;;;;;;15.44;65.65;101155.84;4974823;28;21166;-59
2022/01/02 11:09:55;;;;;;;24.52;5.65;;;;;;;15.40;65.39;101165.50;4992809;28;20050;-61
2022/01/02 11:12:22;;;;;;;25.85;5.13;;;;;;;15.31;65.81;101162.88;4979206;28;20132;-59
2022/01/02 11:14:49;;;;;;;24.13;5.28;;;;;;;15.31;65.71;101152.34;4982318;28;20053;-59
2022/01/02 11:17:14;;;;;;;22.10;5.45;;;;;;;15.28;65.63;101165.50;4994841;28;20037;-59
2022/01/02 11:19:40;;;;;;;23.65;5.20;;;;;;;15.28;65.26;101181.28;4975167;28;20103;-60
2022/01/02 11:22:11;;;;;;;20.83;4.85;;;;;;;15.12;65.81;101170.78;4980320;28;20052;-59
2022/01/02 11:24:43;;;;;;;20.38;4.72;;;;;;;14.99;65.97;101172.53;4980296;28;20141;-59
2022/01/02 11:27:20;;;;;;;23.75;4.45;;;;;;;14.67;67.03;101167.25;4976815;28;20054;-60